sensor_id;sensor_type;location;lat;lon;timestamp;P1;durP1;ratioP1;P2;durP2;ratioP2
11496;SDS011;5805;51.542;7.230;2022-10-16T00:01:35;2.90;;;2.22;;
11496;SDS011;5805;51.542;7.230;2022-10-16T00:04:01;6.75;;;2.90;;
11496;SDS011;5805;51.542;7.230;2022-10-16T00:06:27;2.95;;;2.30;;
11496;SDS011;5805;51.542;7.230;2022-10-16T00:08:54;4.13;;;2.00;;
11496;SDS011;5805;51.542;7.230;2022-10-16T00:11:21;4.18;;;2.28;;
11496;SDS011;5805;51.542;7.230;2022-10-16T00:13:48;3.55;;;2.20;;
11496;SDS011;5805;51.542;7.230;2022-10-16T00:16:17;3.90;;;2.30;;
11496;SDS011;5805;51.542;7.230;2022-10-16T00:18:43;3.70;;;2.03;;
11496;SDS011;5805;51.542;7.230;2022-10-16T00:21:10;4.18;;;2.20;;
11496;SDS011;5805;51.542;7.230;2022-10-16T00:23:37;6.50;;;2.00;;
11496;SDS011;5805;51.542;7.230;2022-10-16T00:26:04;4.05;;;2.03;;
11496;SDS011;5805;51.542;7.230;2022-10-16T00:28:31;2.90;;;1.70;;
11496;SDS011;5805;51.542;7.230;2022-10-16T00:30:57;3.88;;;1.65;;
11496;SDS011;5805;51.542;7.230;2022-10-16T00:33:25;2.67;;;1.80;;
11496;SDS011;5805;51.542;7.230;2022-10-16T00:35:50;5.90;;;2.00;;
11496;SDS011;5805;51.542;7.230;2022-10-16T00:38:16;5.95;;;1.73;;
11496;SDS011;5805;51.542;7.230;2022-10-16T00:40:42;3.35;;;2.05;;
11496;SDS011;5805;51.542;7.230;2022-10-16T00:43:11;3.38;;;1.75;;
11496;SDS011;5805;51.542;7.230;2022-10-16T00:45:38;7.00;;;2.05;;
11496;SDS011;5805;51.542;7.230;2022-10-16T00:48:06;3.90;;;1.75;;
11496;SDS011;5805;51.542;7.230;2022-10-16T00:50:39;2.15;;;1.60;;
11496;SDS011;5805;51.542;7.230;2022-10-16T00:53:05;8.48;;;1.67;;
11496;SDS011;5805;51.542;7.230;2022-10-16T00:55:31;5.72;;;1.63;;
11496;SDS011;5805;51.542;7.230;2022-10-16T00:57:56;2.55;;;1.65;;
11496;SDS011;5805;51.542;7.230;2022-10-16T01:00:23;4.05;;;1.80;;
11496;SDS011;5805;51.542;7.230;2022-10-16T01:02:52;3.53;;;1.60;;
11496;SDS011;5805;51.542;7.230;2022-10-16T01:05:18;3.67;;;1.50;;
11496;SDS011;5805;51.542;7.230;2022-10-16T01:07:46;2.53;;;1.40;;
11496;SDS011;5805;51.542;7.230;2022-10-16T01:10:23;3.80;;;1.65;;
11496;SDS011;5805;51.542;7.230;2022-10-16T01:12:57;1.98;;;1.42;;
11496;SDS011;5805;51.542;7.230;2022-10-16T01:15:26;3.38;;;1.60;;
11496;SDS011;5805;51.542;7.230;2022-10-16T01:17:57;2.92;;;1.50;;
11496;SDS011;5805;51.542;7.230;2022-10-16T01:20:27;3.38;;;1.42;;
11496;SDS011;5805;51.542;7.230;2022-10-16T01:22:59;5.10;;;1.35;;
11496;SDS011;5805;51.542;7.230;2022-10-16T01:25:33;3.78;;;1.38;;
11496;SDS011;5805;51.542;7.230;2022-10-16T01:28:13;3.08;;;1.40;;
11496;SDS011;5805;51.542;7.230;2022-10-16T01:30:40;2.80;;;1.38;;
11496;SDS011;5805;51.542;7.230;2022-10-16T01:33:10;4.60;;;1.42;;
11496;SDS011;5805;51.542;7.230;2022-10-16T01:35:41;4.20;;;1.60;;
11496;SDS011;5805;51.542;7.230;2022-10-16T01:38:10;2.35;;;1.38;;
11496;SDS011;5805;51.542;7.230;2022-10-16T01:40:41;6.10;;;1.83;;
11496;SDS011;5805;51.542;7.230;2022-10-16T01:43:11;3.33;;;1.40;;
11496;SDS011;5805;51.542;7.230;2022-10-16T01:45:40;1.88;;;1.58;;
11496;SDS011;5805;51.542;7.230;2022-10-16T01:48:09;2.67;;;1.30;;
11496;SDS011;5805;51.542;7.230;2022-10-16T01:50:38;5.18;;;1.38;;
11496;SDS011;5805;51.542;7.230;2022-10-16T01:53:07;3.15;;;1.42;;
11496;SDS011;5805;51.542;7.230;2022-10-16T01:55:38;3.30;;;1.30;;
11496;SDS011;5805;51.542;7.230;2022-10-16T01:58:08;5.10;;;1.13;;
11496;SDS011;5805;51.542;7.230;2022-10-16T02:00:37;2.03;;;1.40;;
11496;SDS011;5805;51.542;7.230;2022-10-16T02:03:05;5.72;;;1.30;;
11496;SDS011;5805;51.542;7.230;2022-10-16T02:05:33;3.83;;;1.30;;
11496;SDS011;5805;51.542;7.230;2022-10-16T02:08:03;2.33;;;1.27;;
11496;SDS011;5805;51.542;7.230;2022-10-16T02:10:29;2.00;;;1.33;;
11496;SDS011;5805;51.542;7.230;2022-10-16T02:12:57;6.43;;;1.30;;
11496;SDS011;5805;51.542;7.230;2022-10-16T02:15:26;2.20;;;1.35;;
11496;SDS011;5805;51.542;7.230;2022-10-16T02:17:53;2.10;;;1.30;;
11496;SDS011;5805;51.542;7.230;2022-10-16T02:20:19;1.92;;;1.38;;
11496;SDS011;5805;51.542;7.230;2022-10-16T02:22:50;3.90;;;1.30;;
11496;SDS011;5805;51.542;7.230;2022-10-16T02:25:17;2.30;;;1.00;;
11496;SDS011;5805;51.542;7.230;2022-10-16T02:27:48;2.00;;;1.20;;
11496;SDS011;5805;51.542;7.230;2022-10-16T02:30:19;1.15;;;0.93;;
11496;SDS011;5805;51.542;7.230;2022-10-16T02:32:49;1.45;;;1.10;;
11496;SDS011;5805;51.542;7.230;2022-10-16T02:35:18;1.63;;;1.20;;
11496;SDS011;5805;51.542;7.230;2022-10-16T02:37:45;3.40;;;1.45;;
11496;SDS011;5805;51.542;7.230;2022-10-16T02:40:12;2.88;;;1.23;;
11496;SDS011;5805;51.542;7.230;2022-10-16T02:42:39;2.42;;;1.13;;
11496;SDS011;5805;51.542;7.230;2022-10-16T02:45:05;1.85;;;1.10;;
11496;SDS011;5805;51.542;7.230;2022-10-16T02:47:33;2.13;;;1.02;;
11496;SDS011;5805;51.542;7.230;2022-10-16T02:49:59;1.65;;;1.05;;
11496;SDS011;5805;51.542;7.230;2022-10-16T02:52:26;1.75;;;1.08;;
11496;SDS011;5805;51.542;7.230;2022-10-16T02:54:52;3.60;;;1.17;;
11496;SDS011;5805;51.542;7.230;2022-10-16T02:57:17;2.33;;;1.10;;
11496;SDS011;5805;51.542;7.230;2022-10-16T02:59:43;2.33;;;1.30;;
11496;SDS011;5805;51.542;7.230;2022-10-16T03:02:09;2.10;;;1.23;;
11496;SDS011;5805;51.542;7.230;2022-10-16T03:04:35;1.88;;;1.13;;
11496;SDS011;5805;51.542;7.230;2022-10-16T03:07:01;1.65;;;1.10;;
11496;SDS011;5805;51.542;7.230;2022-10-16T03:09:28;3.50;;;1.23;;
11496;SDS011;5805;51.542;7.230;2022-10-16T03:11:53;1.75;;;0.93;;
11496;SDS011;5805;51.542;7.230;2022-10-16T03:14:19;1.10;;;0.90;;
11496;SDS011;5805;51.542;7.230;2022-10-16T03:16:45;3.38;;;1.20;;
11496;SDS011;5805;51.542;7.230;2022-10-16T03:19:11;1.95;;;1.00;;
11496;SDS011;5805;51.542;7.230;2022-10-16T03:21:36;6.07;;;1.27;;
11496;SDS011;5805;51.542;7.230;2022-10-16T03:24:02;1.52;;;1.00;;
11496;SDS011;5805;51.542;7.230;2022-10-16T03:26:30;2.17;;;1.05;;
11496;SDS011;5805;51.542;7.230;2022-10-16T03:28:55;2.72;;;0.88;;
11496;SDS011;5805;51.542;7.230;2022-10-16T03:31:21;1.63;;;0.98;;
11496;SDS011;5805;51.542;7.230;2022-10-16T03:33:47;4.72;;;1.17;;
11496;SDS011;5805;51.542;7.230;2022-10-16T03:36:12;2.83;;;1.00;;
11496;SDS011;5805;51.542;7.230;2022-10-16T03:38:38;2.60;;;0.90;;
11496;SDS011;5805;51.542;7.230;2022-10-16T03:41:04;2.42;;;1.10;;
11496;SDS011;5805;51.542;7.230;2022-10-16T03:43:31;1.75;;;1.13;;
11496;SDS011;5805;51.542;7.230;2022-10-16T03:45:56;3.20;;;0.95;;
11496;SDS011;5805;51.542;7.230;2022-10-16T03:48:22;2.10;;;0.90;;
11496;SDS011;5805;51.542;7.230;2022-10-16T03:50:48;4.70;;;1.02;;
11496;SDS011;5805;51.542;7.230;2022-10-16T03:53:13;2.10;;;1.20;;
11496;SDS011;5805;51.542;7.230;2022-10-16T03:55:40;2.08;;;1.00;;
11496;SDS011;5805;51.542;7.230;2022-10-16T03:58:06;6.65;;;1.05;;
11496;SDS011;5805;51.542;7.230;2022-10-16T04:00:33;0.88;;;0.85;;
11496;SDS011;5805;51.542;7.230;2022-10-16T04:02:59;1.27;;;0.85;;
11496;SDS011;5805;51.542;7.230;2022-10-16T04:05:25;1.52;;;1.02;;
11496;SDS011;5805;51.542;7.230;2022-10-16T04:07:51;1.27;;;1.00;;
11496;SDS011;5805;51.542;7.230;2022-10-16T04:10:16;2.40;;;1.08;;
11496;SDS011;5805;51.542;7.230;2022-10-16T04:12:42;1.60;;;1.05;;
11496;SDS011;5805;51.542;7.230;2022-10-16T04:15:08;3.00;;;0.90;;
11496;SDS011;5805;51.542;7.230;2022-10-16T04:17:35;5.03;;;1.42;;
11496;SDS011;5805;51.542;7.230;2022-10-16T04:20:01;0.98;;;0.77;;
11496;SDS011;5805;51.542;7.230;2022-10-16T04:22:27;3.08;;;1.20;;
11496;SDS011;5805;51.542;7.230;2022-10-16T04:24:52;0.80;;;0.70;;
11496;SDS011;5805;51.542;7.230;2022-10-16T04:27:18;1.08;;;0.95;;
11496;SDS011;5805;51.542;7.230;2022-10-16T04:29:44;3.05;;;1.10;;
11496;SDS011;5805;51.542;7.230;2022-10-16T04:32:09;1.67;;;0.80;;
11496;SDS011;5805;51.542;7.230;2022-10-16T04:34:36;1.35;;;1.00;;
11496;SDS011;5805;51.542;7.230;2022-10-16T04:37:04;0.98;;;0.73;;
11496;SDS011;5805;51.542;7.230;2022-10-16T04:39:30;2.78;;;1.00;;
11496;SDS011;5805;51.542;7.230;2022-10-16T04:41:56;1.35;;;1.15;;
11496;SDS011;5805;51.542;7.230;2022-10-16T04:44:21;1.02;;;0.80;;
11496;SDS011;5805;51.542;7.230;2022-10-16T04:46:47;1.73;;;1.05;;
11496;SDS011;5805;51.542;7.230;2022-10-16T04:49:14;1.05;;;0.88;;
11496;SDS011;5805;51.542;7.230;2022-10-16T04:51:41;4.95;;;0.90;;
11496;SDS011;5805;51.542;7.230;2022-10-16T04:54:08;2.13;;;1.00;;
11496;SDS011;5805;51.542;7.230;2022-10-16T04:56:33;1.80;;;1.00;;
11496;SDS011;5805;51.542;7.230;2022-10-16T04:58:59;2.35;;;1.10;;
11496;SDS011;5805;51.542;7.230;2022-10-16T05:01:25;1.35;;;1.00;;
11496;SDS011;5805;51.542;7.230;2022-10-16T05:03:50;1.13;;;1.00;;
11496;SDS011;5805;51.542;7.230;2022-10-16T05:06:16;2.00;;;1.00;;
11496;SDS011;5805;51.542;7.230;2022-10-16T05:08:43;1.17;;;0.93;;
11496;SDS011;5805;51.542;7.230;2022-10-16T05:11:08;2.05;;;0.95;;
11496;SDS011;5805;51.542;7.230;2022-10-16T05:13:34;2.17;;;0.93;;
11496;SDS011;5805;51.542;7.230;2022-10-16T05:16:00;1.25;;;0.82;;
11496;SDS011;5805;51.542;7.230;2022-10-16T05:18:25;2.00;;;0.80;;
11496;SDS011;5805;51.542;7.230;2022-10-16T05:20:51;1.17;;;0.75;;
11496;SDS011;5805;51.542;7.230;2022-10-16T05:23:17;3.75;;;1.00;;
11496;SDS011;5805;51.542;7.230;2022-10-16T05:25:44;4.35;;;1.40;;
11496;SDS011;5805;51.542;7.230;2022-10-16T05:28:17;1.58;;;0.93;;
11496;SDS011;5805;51.542;7.230;2022-10-16T05:30:43;3.30;;;1.10;;
11496;SDS011;5805;51.542;7.230;2022-10-16T05:33:08;2.22;;;0.80;;
11496;SDS011;5805;51.542;7.230;2022-10-16T05:35:34;1.05;;;0.80;;
11496;SDS011;5805;51.542;7.230;2022-10-16T05:37:59;2.55;;;0.80;;
11496;SDS011;5805;51.542;7.230;2022-10-16T05:40:25;1.77;;;0.90;;
11496;SDS011;5805;51.542;7.230;2022-10-16T05:42:55;1.17;;;0.90;;
11496;SDS011;5805;51.542;7.230;2022-10-16T05:45:21;1.85;;;0.80;;
11496;SDS011;5805;51.542;7.230;2022-10-16T05:47:47;1.20;;;0.80;;
11496;SDS011;5805;51.542;7.230;2022-10-16T05:50:12;4.07;;;1.02;;
11496;SDS011;5805;51.542;7.230;2022-10-16T05:52:39;1.10;;;0.80;;
11496;SDS011;5805;51.542;7.230;2022-10-16T05:55:04;1.15;;;1.02;;
11496;SDS011;5805;51.542;7.230;2022-10-16T05:57:31;1.35;;;0.90;;
11496;SDS011;5805;51.542;7.230;2022-10-16T05:59:58;1.60;;;1.10;;
11496;SDS011;5805;51.542;7.230;2022-10-16T06:02:23;5.35;;;1.13;;
11496;SDS011;5805;51.542;7.230;2022-10-16T06:04:49;0.88;;;0.85;;
11496;SDS011;5805;51.542;7.230;2022-10-16T06:07:16;1.35;;;1.10;;
11496;SDS011;5805;51.542;7.230;2022-10-16T06:09:42;2.20;;;0.90;;
11496;SDS011;5805;51.542;7.230;2022-10-16T06:12:07;1.58;;;1.10;;
11496;SDS011;5805;51.542;7.230;2022-10-16T06:14:33;1.52;;;0.93;;
11496;SDS011;5805;51.542;7.230;2022-10-16T06:17:00;2.75;;;1.10;;
11496;SDS011;5805;51.542;7.230;2022-10-16T06:19:26;1.13;;;1.00;;
11496;SDS011;5805;51.542;7.230;2022-10-16T06:21:51;2.28;;;1.13;;
11496;SDS011;5805;51.542;7.230;2022-10-16T06:24:17;4.68;;;1.08;;
11496;SDS011;5805;51.542;7.230;2022-10-16T06:26:43;1.58;;;1.15;;
11496;SDS011;5805;51.542;7.230;2022-10-16T06:29:08;2.97;;;1.13;;
11496;SDS011;5805;51.542;7.230;2022-10-16T06:31:34;1.20;;;1.10;;
11496;SDS011;5805;51.542;7.230;2022-10-16T06:34:01;3.75;;;1.25;;
11496;SDS011;5805;51.542;7.230;2022-10-16T06:36:27;2.20;;;1.10;;
11496;SDS011;5805;51.542;7.230;2022-10-16T06:38:53;3.35;;;1.38;;
11496;SDS011;5805;51.542;7.230;2022-10-16T06:41:19;1.50;;;0.77;;
11496;SDS011;5805;51.542;7.230;2022-10-16T06:43:47;3.58;;;1.08;;
11496;SDS011;5805;51.542;7.230;2022-10-16T06:46:14;2.95;;;0.98;;
11496;SDS011;5805;51.542;7.230;2022-10-16T06:48:41;1.20;;;0.88;;
11496;SDS011;5805;51.542;7.230;2022-10-16T06:51:10;1.08;;;0.85;;
11496;SDS011;5805;51.542;7.230;2022-10-16T06:53:37;1.50;;;1.10;;
11496;SDS011;5805;51.542;7.230;2022-10-16T06:56:08;1.23;;;1.00;;
11496;SDS011;5805;51.542;7.230;2022-10-16T06:58:34;1.38;;;1.00;;
11496;SDS011;5805;51.542;7.230;2022-10-16T07:01:00;1.55;;;1.05;;
11496;SDS011;5805;51.542;7.230;2022-10-16T07:03:25;5.50;;;1.55;;
11496;SDS011;5805;51.542;7.230;2022-10-16T07:05:51;4.15;;;1.23;;
11496;SDS011;5805;51.542;7.230;2022-10-16T07:08:18;1.10;;;1.00;;
11496;SDS011;5805;51.542;7.230;2022-10-16T07:10:44;3.28;;;1.20;;
11496;SDS011;5805;51.542;7.230;2022-10-16T07:13:09;2.40;;;1.23;;
11496;SDS011;5805;51.542;7.230;2022-10-16T07:15:35;3.25;;;1.23;;
11496;SDS011;5805;51.542;7.230;2022-10-16T07:18:01;3.20;;;1.20;;
11496;SDS011;5805;51.542;7.230;2022-10-16T07:20:26;2.80;;;1.50;;
11496;SDS011;5805;51.542;7.230;2022-10-16T07:22:52;2.72;;;1.23;;
11496;SDS011;5805;51.542;7.230;2022-10-16T07:25:19;3.25;;;1.40;;
11496;SDS011;5805;51.542;7.230;2022-10-16T07:27:44;3.80;;;1.80;;
11496;SDS011;5805;51.542;7.230;2022-10-16T07:30:10;1.65;;;1.30;;
11496;SDS011;5805;51.542;7.230;2022-10-16T07:32:36;3.58;;;1.60;;
11496;SDS011;5805;51.542;7.230;2022-10-16T07:35:01;2.40;;;1.50;;
11496;SDS011;5805;51.542;7.230;2022-10-16T07:37:27;5.90;;;1.58;;
11496;SDS011;5805;51.542;7.230;2022-10-16T07:39:53;2.45;;;1.50;;
11496;SDS011;5805;51.542;7.230;2022-10-16T07:42:20;1.48;;;1.38;;
11496;SDS011;5805;51.542;7.230;2022-10-16T07:44:45;6.00;;;1.58;;
11496;SDS011;5805;51.542;7.230;2022-10-16T07:47:11;2.10;;;1.17;;
11496;SDS011;5805;51.542;7.230;2022-10-16T07:49:37;2.15;;;1.30;;
11496;SDS011;5805;51.542;7.230;2022-10-16T07:52:02;4.07;;;1.15;;
11496;SDS011;5805;51.542;7.230;2022-10-16T07:54:28;2.67;;;1.20;;
11496;SDS011;5805;51.542;7.230;2022-10-16T07:56:54;2.55;;;1.10;;
11496;SDS011;5805;51.542;7.230;2022-10-16T07:59:21;2.67;;;1.02;;
11496;SDS011;5805;51.542;7.230;2022-10-16T08:01:48;4.07;;;1.10;;
11496;SDS011;5805;51.542;7.230;2022-10-16T08:04:14;6.85;;;1.27;;
11496;SDS011;5805;51.542;7.230;2022-10-16T08:06:39;3.20;;;0.90;;
11496;SDS011;5805;51.542;7.230;2022-10-16T08:09:05;1.00;;;0.88;;
11496;SDS011;5805;51.542;7.230;2022-10-16T08:11:32;1.95;;;0.90;;
11496;SDS011;5805;51.542;7.230;2022-10-16T08:13:57;1.30;;;1.02;;
11496;SDS011;5805;51.542;7.230;2022-10-16T08:16:24;1.40;;;0.90;;
11496;SDS011;5805;51.542;7.230;2022-10-16T08:18:50;2.88;;;0.80;;
11496;SDS011;5805;51.542;7.230;2022-10-16T08:21:16;1.77;;;1.00;;
11496;SDS011;5805;51.542;7.230;2022-10-16T08:23:43;3.10;;;0.82;;
11496;SDS011;5805;51.542;7.230;2022-10-16T08:26:09;1.60;;;0.90;;
11496;SDS011;5805;51.542;7.230;2022-10-16T08:28:35;1.75;;;0.85;;
11496;SDS011;5805;51.542;7.230;2022-10-16T08:31:04;1.42;;;0.80;;
11496;SDS011;5805;51.542;7.230;2022-10-16T08:33:32;3.10;;;0.98;;
11496;SDS011;5805;51.542;7.230;2022-10-16T08:35:58;1.95;;;1.08;;
11496;SDS011;5805;51.542;7.230;2022-10-16T08:38:24;2.70;;;1.10;;
11496;SDS011;5805;51.542;7.230;2022-10-16T08:40:50;1.17;;;0.85;;
11496;SDS011;5805;51.542;7.230;2022-10-16T08:43:28;1.30;;;0.73;;
11496;SDS011;5805;51.542;7.230;2022-10-16T08:46:10;3.15;;;0.85;;
11496;SDS011;5805;51.542;7.230;2022-10-16T08:48:48;3.97;;;1.05;;
11496;SDS011;5805;51.542;7.230;2022-10-16T08:51:18;2.40;;;0.90;;
11496;SDS011;5805;51.542;7.230;2022-10-16T08:53:46;6.28;;;0.82;;
11496;SDS011;5805;51.542;7.230;2022-10-16T08:56:17;2.30;;;0.85;;
11496;SDS011;5805;51.542;7.230;2022-10-16T08:58:42;1.52;;;0.93;;
11496;SDS011;5805;51.542;7.230;2022-10-16T09:01:11;2.75;;;0.70;;
11496;SDS011;5805;51.542;7.230;2022-10-16T09:03:45;1.88;;;0.85;;
11496;SDS011;5805;51.542;7.230;2022-10-16T09:06:28;3.88;;;0.93;;
11496;SDS011;5805;51.542;7.230;2022-10-16T09:09:05;4.93;;;0.85;;
11496;SDS011;5805;51.542;7.230;2022-10-16T09:11:50;1.23;;;0.80;;
11496;SDS011;5805;51.542;7.230;2022-10-16T09:14:29;1.58;;;0.80;;
11496;SDS011;5805;51.542;7.230;2022-10-16T09:17:06;4.35;;;1.05;;
11496;SDS011;5805;51.542;7.230;2022-10-16T09:19:44;4.22;;;0.60;;
11496;SDS011;5805;51.542;7.230;2022-10-16T09:22:16;5.50;;;0.80;;
11496;SDS011;5805;51.542;7.230;2022-10-16T09:24:42;2.63;;;0.90;;
11496;SDS011;5805;51.542;7.230;2022-10-16T09:27:08;1.13;;;0.63;;
11496;SDS011;5805;51.542;7.230;2022-10-16T09:29:36;3.63;;;0.70;;
11496;SDS011;5805;51.542;7.230;2022-10-16T09:32:07;3.03;;;1.10;;
11496;SDS011;5805;51.542;7.230;2022-10-16T09:34:37;5.00;;;1.00;;
11496;SDS011;5805;51.542;7.230;2022-10-16T09:37:09;3.20;;;1.17;;
11496;SDS011;5805;51.542;7.230;2022-10-16T09:39:45;1.38;;;1.02;;
11496;SDS011;5805;51.542;7.230;2022-10-16T09:42:13;3.22;;;1.10;;
11496;SDS011;5805;51.542;7.230;2022-10-16T09:44:40;4.60;;;1.00;;
11496;SDS011;5805;51.542;7.230;2022-10-16T09:47:12;1.67;;;0.73;;
11496;SDS011;5805;51.542;7.230;2022-10-16T09:49:49;3.55;;;0.80;;
11496;SDS011;5805;51.542;7.230;2022-10-16T09:52:18;1.73;;;0.90;;
11496;SDS011;5805;51.542;7.230;2022-10-16T09:54:53;2.28;;;0.90;;
11496;SDS011;5805;51.542;7.230;2022-10-16T09:57:21;2.47;;;1.13;;
11496;SDS011;5805;51.542;7.230;2022-10-16T09:59:47;2.63;;;0.98;;
11496;SDS011;5805;51.542;7.230;2022-10-16T10:02:15;3.45;;;1.20;;
11496;SDS011;5805;51.542;7.230;2022-10-16T10:04:44;3.33;;;1.13;;
11496;SDS011;5805;51.542;7.230;2022-10-16T10:07:20;4.90;;;1.15;;
11496;SDS011;5805;51.542;7.230;2022-10-16T10:09:49;3.05;;;1.00;;
11496;SDS011;5805;51.542;7.230;2022-10-16T10:12:17;2.50;;;1.10;;
11496;SDS011;5805;51.542;7.230;2022-10-16T10:14:45;3.78;;;0.88;;
11496;SDS011;5805;51.542;7.230;2022-10-16T10:17:14;4.25;;;1.10;;
11496;SDS011;5805;51.542;7.230;2022-10-16T10:19:43;5.13;;;1.08;;
11496;SDS011;5805;51.542;7.230;2022-10-16T10:22:26;2.35;;;0.80;;
11496;SDS011;5805;51.542;7.230;2022-10-16T10:24:55;2.25;;;0.88;;
11496;SDS011;5805;51.542;7.230;2022-10-16T10:27:23;1.42;;;0.70;;
11496;SDS011;5805;51.542;7.230;2022-10-16T10:29:56;3.72;;;1.10;;
11496;SDS011;5805;51.542;7.230;2022-10-16T10:32:27;0.63;;;0.60;;
11496;SDS011;5805;51.542;7.230;2022-10-16T10:35:06;2.28;;;0.95;;
11496;SDS011;5805;51.542;7.230;2022-10-16T10:37:44;1.60;;;0.80;;
11496;SDS011;5805;51.542;7.230;2022-10-16T10:40:30;5.43;;;1.02;;
11496;SDS011;5805;51.542;7.230;2022-10-16T10:43:10;1.38;;;0.75;;
11496;SDS011;5805;51.542;7.230;2022-10-16T10:45:43;5.35;;;0.80;;
11496;SDS011;5805;51.542;7.230;2022-10-16T10:48:39;2.13;;;0.70;;
11496;SDS011;5805;51.542;7.230;2022-10-16T10:51:18;3.75;;;1.10;;
11496;SDS011;5805;51.542;7.230;2022-10-16T10:53:50;3.25;;;1.08;;
11496;SDS011;5805;51.542;7.230;2022-10-16T11:02:02;2.97;;;1.02;;
11496;SDS011;5805;51.542;7.230;2022-10-16T11:07:42;2.88;;;1.30;;
11496;SDS011;5805;51.542;7.230;2022-10-16T11:10:16;2.35;;;1.10;;
11496;SDS011;5805;51.542;7.230;2022-10-16T11:12:46;4.68;;;1.38;;
11496;SDS011;5805;51.542;7.230;2022-10-16T11:15:15;3.42;;;1.40;;
11496;SDS011;5805;51.542;7.230;2022-10-16T11:17:44;2.88;;;1.08;;
11496;SDS011;5805;51.542;7.230;2022-10-16T11:20:18;4.72;;;1.30;;
11496;SDS011;5805;51.542;7.230;2022-10-16T11:22:47;2.78;;;1.00;;
11496;SDS011;5805;51.542;7.230;2022-10-16T11:25:18;1.85;;;0.90;;
11496;SDS011;5805;51.542;7.230;2022-10-16T11:27:48;1.75;;;1.15;;
11496;SDS011;5805;51.542;7.230;2022-10-16T11:30:18;2.92;;;1.27;;
11496;SDS011;5805;51.542;7.230;2022-10-16T11:32:50;2.17;;;1.40;;
11496;SDS011;5805;51.542;7.230;2022-10-16T11:35:24;3.95;;;1.08;;
11496;SDS011;5805;51.542;7.230;2022-10-16T11:37:57;2.92;;;0.95;;
11496;SDS011;5805;51.542;7.230;2022-10-16T11:40:29;1.52;;;0.80;;
11496;SDS011;5805;51.542;7.230;2022-10-16T11:43:01;1.55;;;0.80;;
11496;SDS011;5805;51.542;7.230;2022-10-16T11:45:33;3.05;;;1.02;;
11496;SDS011;5805;51.542;7.230;2022-10-16T11:48:05;3.55;;;0.73;;
11496;SDS011;5805;51.542;7.230;2022-10-16T11:50:40;1.88;;;1.00;;
11496;SDS011;5805;51.542;7.230;2022-10-16T11:53:13;3.47;;;1.33;;
11496;SDS011;5805;51.542;7.230;2022-10-16T11:55:47;2.30;;;1.00;;
11496;SDS011;5805;51.542;7.230;2022-10-16T11:58:16;3.10;;;1.23;;
11496;SDS011;5805;51.542;7.230;2022-10-16T12:00:53;1.95;;;0.90;;
11496;SDS011;5805;51.542;7.230;2022-10-16T12:03:25;1.58;;;0.90;;
11496;SDS011;5805;51.542;7.230;2022-10-16T12:06:00;4.57;;;1.08;;
11496;SDS011;5805;51.542;7.230;2022-10-16T12:08:35;3.45;;;0.90;;
11496;SDS011;5805;51.542;7.230;2022-10-16T12:11:09;1.98;;;1.10;;
11496;SDS011;5805;51.542;7.230;2022-10-16T12:13:47;3.13;;;0.85;;
11496;SDS011;5805;51.542;7.230;2022-10-16T12:16:20;2.17;;;0.90;;
11496;SDS011;5805;51.542;7.230;2022-10-16T12:18:48;1.90;;;0.93;;
11496;SDS011;5805;51.542;7.230;2022-10-16T12:21:29;1.85;;;0.77;;
11496;SDS011;5805;51.542;7.230;2022-10-16T12:23:56;2.10;;;1.02;;
11496;SDS011;5805;51.542;7.230;2022-10-16T12:26:26;3.30;;;1.48;;
11496;SDS011;5805;51.542;7.230;2022-10-16T12:28:54;5.80;;;1.23;;
11496;SDS011;5805;51.542;7.230;2022-10-16T12:31:21;1.55;;;1.10;;
11496;SDS011;5805;51.542;7.230;2022-10-16T12:33:56;5.53;;;0.80;;
11496;SDS011;5805;51.542;7.230;2022-10-16T12:36:27;1.63;;;1.00;;
11496;SDS011;5805;51.542;7.230;2022-10-16T12:38:54;0.88;;;0.50;;
11496;SDS011;5805;51.542;7.230;2022-10-16T12:41:24;2.75;;;0.75;;
11496;SDS011;5805;51.542;7.230;2022-10-16T12:43:52;2.40;;;0.80;;
11496;SDS011;5805;51.542;7.230;2022-10-16T12:46:23;1.80;;;1.00;;
11496;SDS011;5805;51.542;7.230;2022-10-16T12:49:04;4.30;;;0.93;;
11496;SDS011;5805;51.542;7.230;2022-10-16T12:51:41;2.35;;;1.10;;
11496;SDS011;5805;51.542;7.230;2022-10-16T12:54:11;2.67;;;1.38;;
11496;SDS011;5805;51.542;7.230;2022-10-16T12:56:43;1.55;;;1.17;;
11496;SDS011;5805;51.542;7.230;2022-10-16T12:59:21;2.58;;;0.90;;
11496;SDS011;5805;51.542;7.230;2022-10-16T13:02:01;2.60;;;1.08;;
11496;SDS011;5805;51.542;7.230;2022-10-16T13:04:47;3.42;;;1.10;;
11496;SDS011;5805;51.542;7.230;2022-10-16T13:07:31;3.17;;;1.90;;
11496;SDS011;5805;51.542;7.230;2022-10-16T13:10:12;2.75;;;1.30;;
11496;SDS011;5805;51.542;7.230;2022-10-16T13:12:49;2.45;;;1.10;;
11496;SDS011;5805;51.542;7.230;2022-10-16T13:15:27;3.13;;;1.27;;
11496;SDS011;5805;51.542;7.230;2022-10-16T13:18:09;1.27;;;1.10;;
11496;SDS011;5805;51.542;7.230;2022-10-16T13:20:43;0.82;;;0.50;;
11496;SDS011;5805;51.542;7.230;2022-10-16T13:23:20;2.30;;;0.60;;
11496;SDS011;5805;51.542;7.230;2022-10-16T13:25:55;3.22;;;1.08;;
11496;SDS011;5805;51.542;7.230;2022-10-16T13:28:33;1.85;;;0.68;;
11496;SDS011;5805;51.542;7.230;2022-10-16T13:31:00;6.35;;;1.50;;
11496;SDS011;5805;51.542;7.230;2022-10-16T13:33:30;3.67;;;1.00;;
11496;SDS011;5805;51.542;7.230;2022-10-16T13:35:58;2.47;;;0.80;;
11496;SDS011;5805;51.542;7.230;2022-10-16T13:38:24;2.42;;;1.25;;
11496;SDS011;5805;51.542;7.230;2022-10-16T13:40:52;4.97;;;1.13;;
11496;SDS011;5805;51.542;7.230;2022-10-16T13:43:20;3.50;;;1.00;;
11496;SDS011;5805;51.542;7.230;2022-10-16T13:45:58;4.28;;;0.95;;
11496;SDS011;5805;51.542;7.230;2022-10-16T13:48:26;1.88;;;1.05;;
11496;SDS011;5805;51.542;7.230;2022-10-16T13:50:58;1.90;;;0.60;;
11496;SDS011;5805;51.542;7.230;2022-10-16T13:53:24;1.20;;;0.70;;
11496;SDS011;5805;51.542;7.230;2022-10-16T13:55:50;5.95;;;1.10;;
11496;SDS011;5805;51.542;7.230;2022-10-16T13:58:15;2.17;;;1.50;;
11496;SDS011;5805;51.542;7.230;2022-10-16T14:00:52;2.75;;;1.10;;
11496;SDS011;5805;51.542;7.230;2022-10-16T14:03:20;3.00;;;0.82;;
11496;SDS011;5805;51.542;7.230;2022-10-16T14:05:47;3.63;;;1.10;;
11496;SDS011;5805;51.542;7.230;2022-10-16T14:08:14;1.38;;;0.75;;
11496;SDS011;5805;51.542;7.230;2022-10-16T14:10:41;1.23;;;1.08;;
11496;SDS011;5805;51.542;7.230;2022-10-16T14:13:07;2.08;;;0.85;;
11496;SDS011;5805;51.542;7.230;2022-10-16T14:15:39;3.58;;;0.93;;
11496;SDS011;5805;51.542;7.230;2022-10-16T14:18:05;1.58;;;0.80;;
11496;SDS011;5805;51.542;7.230;2022-10-16T14:20:33;1.35;;;0.80;;
11496;SDS011;5805;51.542;7.230;2022-10-16T14:23:00;2.65;;;1.10;;
11496;SDS011;5805;51.542;7.230;2022-10-16T14:25:28;1.00;;;0.90;;
11496;SDS011;5805;51.542;7.230;2022-10-16T14:27:58;4.68;;;0.88;;
11496;SDS011;5805;51.542;7.230;2022-10-16T14:30:25;3.10;;;0.75;;
11496;SDS011;5805;51.542;7.230;2022-10-16T14:32:53;1.20;;;0.60;;
11496;SDS011;5805;51.542;7.230;2022-10-16T14:35:24;3.63;;;1.80;;
11496;SDS011;5805;51.542;7.230;2022-10-16T14:37:53;3.08;;;1.50;;
11496;SDS011;5805;51.542;7.230;2022-10-16T14:40:20;3.15;;;1.60;;
11496;SDS011;5805;51.542;7.230;2022-10-16T14:42:48;6.40;;;1.50;;
11496;SDS011;5805;51.542;7.230;2022-10-16T14:45:15;1.73;;;1.30;;
11496;SDS011;5805;51.542;7.230;2022-10-16T14:47:47;1.80;;;1.20;;
11496;SDS011;5805;51.542;7.230;2022-10-16T14:50:15;1.42;;;0.95;;
11496;SDS011;5805;51.542;7.230;2022-10-16T14:52:41;2.75;;;1.30;;
11496;SDS011;5805;51.542;7.230;2022-10-16T14:55:08;1.42;;;1.00;;
11496;SDS011;5805;51.542;7.230;2022-10-16T14:57:35;3.45;;;1.60;;
11496;SDS011;5805;51.542;7.230;2022-10-16T15:00:02;4.28;;;1.35;;
11496;SDS011;5805;51.542;7.230;2022-10-16T15:02:29;2.65;;;1.30;;
11496;SDS011;5805;51.542;7.230;2022-10-16T15:04:56;2.67;;;0.93;;
11496;SDS011;5805;51.542;7.230;2022-10-16T15:07:23;2.63;;;1.23;;
11496;SDS011;5805;51.542;7.230;2022-10-16T15:09:49;2.93;;;1.60;;
11496;SDS011;5805;51.542;7.230;2022-10-16T15:12:16;1.50;;;1.23;;
11496;SDS011;5805;51.542;7.230;2022-10-16T15:14:42;5.25;;;1.40;;
11496;SDS011;5805;51.542;7.230;2022-10-16T15:17:08;2.50;;;1.13;;
11496;SDS011;5805;51.542;7.230;2022-10-16T15:19:35;1.73;;;0.98;;